createdAt,value
2018-12-31T00:00:14.786Z,0
2018-12-31T00:01:15.596Z,0
2018-12-31T00:02:16.316Z,0
2018-12-31T00:03:16.720Z,0
2018-12-31T00:04:17.126Z,0
2018-12-31T00:05:18.085Z,0
2018-12-31T00:06:18.214Z,0
2018-12-31T00:07:19.894Z,0
2018-12-31T00:08:20.298Z,0
2018-12-31T00:09:20.703Z,0
2018-12-31T00:10:22.387Z,0
2018-12-31T00:11:22.286Z,0
2018-12-31T00:12:23.248Z,0
2018-12-31T00:13:23.206Z,0
2018-12-31T00:14:23.958Z,0
2018-12-31T00:15:24.085Z,0
2018-12-31T00:16:25.775Z,0
2018-12-31T00:17:27.073Z,0
2018-12-31T00:18:26.479Z,0
2018-12-31T00:19:27.716Z,0
2018-12-31T00:20:28.123Z,0
2018-12-31T00:21:28.984Z,0
2018-12-31T00:22:30.222Z,0
2018-12-31T00:23:31.461Z,0
2018-12-31T00:24:31.701Z,0
2018-12-31T00:25:32.382Z,0
2018-12-31T00:26:32.846Z,0
2018-12-31T00:27:33.531Z,0
2018-12-31T00:28:34.007Z,0
2018-12-31T00:29:34.969Z,0
2018-12-31T00:30:35.648Z,0
2018-12-31T00:31:36.465Z,0
2018-12-31T00:32:36.896Z,0
2018-12-31T00:33:38.371Z,0
2018-12-31T00:34:39.054Z,0
2018-12-31T00:35:39.467Z,0
2018-12-31T00:36:39.871Z,0
2018-12-31T00:37:40.276Z,0
2018-12-31T00:38:40.406Z,0
2018-12-31T00:39:41.813Z,0
2018-12-31T00:40:43.613Z,0
2018-12-31T00:41:43.695Z,0
2018-12-31T00:42:44.099Z,0
2018-12-31T00:43:44.524Z,0
2018-12-31T00:44:45.260Z,0
2018-12-31T00:45:45.295Z,0
2018-12-31T00:46:45.417Z,0
2018-12-31T00:47:47.103Z,0
2018-12-31T00:48:47.522Z,0
2018-12-31T00:49:47.646Z,0
2018-12-31T00:50:49.050Z,0
2018-12-31T00:51:49.581Z,0
2018-12-31T00:52:51.266Z,0
2018-12-31T00:53:51.951Z,0
2018-12-31T00:54:52.988Z,0
2018-12-31T00:55:53.683Z,0
2018-12-31T00:56:55.475Z,0
2018-12-31T00:57:54.607Z,0
2018-12-31T00:58:55.733Z,0
2018-12-31T00:59:57.143Z,0
2018-12-31T01:00:57.265Z,0
2018-12-31T01:01:58.112Z,0
2018-12-31T01:02:58.794Z,0
2018-12-31T01:03:59.205Z,0
2018-12-31T01:04:59.605Z,0
2018-12-31T01:06:00.743Z,0
2018-12-31T01:07:01.152Z,0
2018-12-31T01:08:01.562Z,0
2018-12-31T01:09:02.691Z,0
2018-12-31T01:10:03.947Z,0
2018-12-31T01:11:21.466Z,0
2018-12-31T01:12:22.003Z,0
2018-12-31T01:13:22.694Z,0
2018-12-31T01:14:23.122Z,0
2018-12-31T01:15:23.249Z,0
2018-12-31T01:16:24.660Z,0
2018-12-31T01:17:25.350Z,0
2018-12-31T01:18:26.311Z,0
2018-12-31T01:19:25.726Z,0
2018-12-31T01:20:27.132Z,0
2018-12-31T01:21:27.813Z,0
2018-12-31T01:22:28.902Z,0
2018-12-31T01:23:29.104Z,0
2018-12-31T01:24:29.505Z,0
2018-12-31T01:25:30.468Z,0
2018-12-31T01:26:30.707Z,0
2018-12-31T01:27:31.390Z,0
2018-12-31T01:28:32.350Z,0
2018-12-31T01:29:33.032Z,0
2018-12-31T01:30:33.716Z,0
2018-12-31T01:31:34.121Z,0
2018-12-31T01:32:35.836Z,0
2018-12-31T01:33:36.796Z,0
2018-12-31T01:34:36.926Z,0
2018-12-31T01:35:37.885Z,0
2018-12-31T01:36:38.565Z,0
2018-12-31T01:37:39.249Z,0
2018-12-31T01:38:39.655Z,0
2018-12-31T01:39:41.112Z,0
2018-12-31T01:40:42.072Z,0
2018-12-31T01:41:44.183Z,0
2018-12-31T01:42:45.059Z,0
2018-12-31T01:43:46.061Z,0
2018-12-31T01:44:46.466Z,0
2018-12-31T01:45:47.596Z,0
2018-12-31T01:46:49.279Z,0
2018-12-31T01:47:50.591Z,0
2018-12-31T01:48:51.828Z,0
2018-12-31T01:49:52.086Z,0
2018-12-31T01:50:53.056Z,0
2018-12-31T01:51:54.018Z,0
2018-12-31T01:52:53.827Z,0
2018-12-31T01:53:55.344Z,0
2018-12-31T01:54:54.748Z,0
2018-12-31T01:55:56.431Z,0
2018-12-31T01:56:57.116Z,0
2018-12-31T01:57:57.519Z,0
2018-12-31T01:58:57.924Z,0
2018-12-31T01:59:58.056Z,0
2018-12-31T02:00:59.014Z,0
2018-12-31T02:01:59.421Z,0
2018-12-31T02:02:59.675Z,0
2018-12-31T02:04:01.636Z,0
2018-12-31T02:05:02.880Z,0
2018-12-31T02:06:02.841Z,0
2018-12-31T02:07:03.540Z,0
2018-12-31T02:08:03.946Z,0
2018-12-31T02:09:04.919Z,0
2018-12-31T02:10:05.319Z,0
2018-12-31T02:11:05.722Z,0
2018-12-31T02:12:06.404Z,0
2018-12-31T02:13:07.487Z,0
2018-12-31T02:14:08.175Z,0
2018-12-31T02:15:08.855Z,0
2018-12-31T02:16:09.262Z,0
2018-12-31T02:17:11.222Z,0
2018-12-31T02:18:11.629Z,0
2018-12-31T02:19:12.370Z,0
2018-12-31T02:20:13.060Z,0
2018-12-31T02:21:13.252Z,0
2018-12-31T02:22:13.376Z,0
2018-12-31T02:23:14.196Z,0
2018-12-31T02:24:14.602Z,0
2018-12-31T02:25:14.729Z,0
2018-12-31T02:26:16.417Z,0
2018-12-31T02:27:16.822Z,0
2018-12-31T02:28:17.781Z,0
2018-12-31T02:29:17.469Z,0
2018-12-31T02:30:19.578Z,0
2018-12-31T02:31:20.324Z,0
2018-12-31T02:32:21.904Z,0
2018-12-31T02:33:22.748Z,0
2018-12-31T02:34:22.437Z,0
2018-12-31T02:35:23.419Z,0
2018-12-31T02:36:24.448Z,0
2018-12-31T02:37:25.427Z,0
2018-12-31T02:38:25.113Z,0
2018-12-31T02:39:25.541Z,0
2018-12-31T02:40:27.573Z,0
2018-12-31T02:41:28.534Z,0
2018-12-31T02:42:29.495Z,0
2018-12-31T02:43:30.641Z,0
2018-12-31T02:44:31.060Z,0
2018-12-31T02:45:32.300Z,0
2018-12-31T02:46:32.849Z,0
2018-12-31T02:47:32.992Z,0
2018-12-31T02:48:34.509Z,0
2018-12-31T02:49:34.639Z,0
2018-12-31T02:50:35.601Z,0
2018-12-31T02:51:36.003Z,0
2018-12-31T02:52:36.740Z,0
2018-12-31T02:53:37.182Z,0
2018-12-31T02:54:37.597Z,0
2018-12-31T02:55:38.282Z,0
2018-12-31T02:56:38.981Z,0
2018-12-31T02:57:39.669Z,0
2018-12-31T02:58:40.355Z,0
2018-12-31T02:59:40.762Z,0
2018-12-31T03:00:42.030Z,0
2018-12-31T03:01:42.991Z,0
2018-12-31T03:02:43.953Z,0
2018-12-31T03:03:44.340Z,0
2018-12-31T03:04:45.860Z,0
2018-12-31T03:05:46.100Z,0
2018-12-31T03:06:46.785Z,0
2018-12-31T03:07:48.023Z,0
2018-12-31T03:08:47.709Z,0
2018-12-31T03:09:48.114Z,0
2018-12-31T03:10:49.532Z,0
2018-12-31T03:11:51.333Z,0
2018-12-31T03:12:51.017Z,0
2018-12-31T03:13:52.075Z,0
2018-12-31T03:14:52.483Z,0
2018-12-31T03:15:53.165Z,0
2018-12-31T03:16:54.124Z,0
2018-12-31T03:17:54.534Z,0
2018-12-31T03:18:55.219Z,0
2018-12-31T03:19:55.904Z,0
2018-12-31T03:20:56.866Z,0
2018-12-31T03:21:57.562Z,0
2018-12-31T03:22:58.246Z,0
2018-12-31T03:23:59.727Z,0
2018-12-31T03:25:01.259Z,0
2018-12-31T03:26:01.522Z,0
2018-12-31T03:27:01.927Z,0
2018-12-31T03:28:02.062Z,0
2018-12-31T03:29:04.038Z,0
2018-12-31T03:30:04.379Z,0
2018-12-31T03:31:06.272Z,0
2018-12-31T03:32:07.127Z,0
2018-12-31T03:33:07.256Z,0
2018-12-31T03:34:07.196Z,0
2018-12-31T03:35:08.163Z,0
2018-12-31T03:36:08.286Z,0
2018-12-31T03:37:09.969Z,0
2018-12-31T03:38:10.934Z,0
2018-12-31T03:39:10.905Z,0
2018-12-31T03:40:11.870Z,0
2018-12-31T03:41:12.354Z,0
2018-12-31T03:42:13.035Z,0
2018-12-31T03:43:14.285Z,0
2018-12-31T03:44:14.667Z,0
2018-12-31T03:45:14.081Z,0
2018-12-31T03:46:15.882Z,0
2018-12-31T03:47:15.846Z,0
2018-12-31T03:48:16.824Z,0
2018-12-31T03:49:17.070Z,0
2018-12-31T03:50:17.760Z,0
2018-12-31T03:51:18.460Z,0
2018-12-31T03:52:19.154Z,0
2018-12-31T03:53:19.838Z,0
2018-12-31T03:54:21.511Z,0
2018-12-31T03:55:22.197Z,0
2018-12-31T03:56:23.164Z,0
2018-12-31T03:57:24.473Z,0
2018-12-31T03:58:24.879Z,0
2018-12-31T03:59:25.569Z,0
2018-12-31T04:00:26.938Z,0
2018-12-31T04:01:27.174Z,0
2018-12-31T04:02:28.719Z,0
2018-12-31T04:03:28.408Z,0
2018-12-31T04:04:29.933Z,0
2018-12-31T04:05:30.894Z,0
2018-12-31T04:06:31.132Z,0
2018-12-31T04:07:31.538Z,0
2018-12-31T04:08:32.546Z,0
2018-12-31T04:09:32.519Z,0
2018-12-31T04:10:32.928Z,0
2018-12-31T04:11:33.614Z,0
2018-12-31T04:12:34.577Z,0
2018-12-31T04:13:35.257Z,0
2018-12-31T04:14:35.452Z,0
2018-12-31T04:15:35.580Z,0
2018-12-31T04:16:37.285Z,0
2018-12-31T04:17:38.538Z,0
2018-12-31T04:18:39.072Z,0
2018-12-31T04:19:39.606Z,0
2018-12-31T04:20:39.293Z,0
2018-12-31T04:21:40.258Z,0
2018-12-31T04:22:40.664Z,0
2018-12-31T04:23:41.067Z,0
2018-12-31T04:24:42.459Z,0
2018-12-31T04:25:43.439Z,0
2018-12-31T04:26:44.122Z,0
2018-12-31T04:27:45.106Z,0
2018-12-31T04:28:45.064Z,0
2018-12-31T04:29:46.027Z,0
2018-12-31T04:30:46.709Z,0
2018-12-31T04:31:47.408Z,0
2018-12-31T04:32:47.536Z,0
2018-12-31T04:33:49.224Z,0
2018-12-31T04:34:49.877Z,0
2018-12-31T04:35:50.282Z,0
2018-12-31T04:36:52.253Z,0
2018-12-31T04:37:52.762Z,0
2018-12-31T04:38:53.451Z,0
2018-12-31T04:39:54.718Z,0
2018-12-31T04:40:55.401Z,0
2018-12-31T04:41:55.677Z,0
2018-12-31T04:42:56.156Z,0
2018-12-31T04:43:57.135Z,0
2018-12-31T04:44:57.529Z,0
2018-12-31T04:45:57.656Z,0
2018-12-31T04:46:58.787Z,0
2018-12-31T04:48:00.024Z,0
2018-12-31T04:49:00.837Z,0
2018-12-31T04:50:02.060Z,0
2018-12-31T04:51:01.183Z,0
2018-12-31T04:52:03.148Z,0
2018-12-31T04:53:04.122Z,0
2018-12-31T04:54:04.083Z,0
2018-12-31T04:55:05.818Z,0
2018-12-31T04:56:05.512Z,0
2018-12-31T04:57:05.633Z,0
2018-12-31T04:58:07.053Z,0
2018-12-31T04:59:07.735Z,0
2018-12-31T05:00:08.456Z,0
2018-12-31T05:01:08.922Z,0
2018-12-31T05:02:09.324Z,0
2018-12-31T05:03:09.450Z,0
2018-12-31T05:04:11.132Z,0
2018-12-31T05:05:10.975Z,0
2018-12-31T05:06:12.941Z,0
2018-12-31T05:07:13.082Z,0
2018-12-31T05:08:14.324Z,0
2018-12-31T05:09:14.004Z,0
2018-12-31T05:10:14.695Z,0
2018-12-31T05:11:15.370Z,0
2018-12-31T05:12:16.606Z,0
2018-12-31T05:13:17.603Z,0
2018-12-31T05:14:18.002Z,0
2018-12-31T05:15:19.437Z,0
2018-12-31T05:16:20.409Z,0
2018-12-31T05:17:20.817Z,0
2018-12-31T05:18:21.774Z,0
2018-12-31T05:19:23.036Z,0
2018-12-31T05:20:22.729Z,0
2018-12-31T05:21:23.813Z,0
2018-12-31T05:22:24.220Z,0
2018-12-31T05:23:25.463Z,0
2018-12-31T05:24:25.951Z,0
2018-12-31T05:25:27.193Z,0
2018-12-31T05:26:27.667Z,0
2018-12-31T05:27:28.358Z,0
2018-12-31T05:28:29.321Z,0
2018-12-31T05:29:29.726Z,0
2018-12-31T05:30:31.407Z,0
2018-12-31T05:31:31.814Z,0
2018-12-31T05:32:32.775Z,0
2018-12-31T05:33:33.184Z,0
2018-12-31T05:34:33.582Z,0
2018-12-31T05:35:34.705Z,0
2018-12-31T05:36:35.109Z,0
2018-12-31T05:37:37.067Z,0
2018-12-31T05:38:37.754Z,0
2018-12-31T05:39:38.994Z,0
2018-12-31T05:40:39.123Z,0
2018-12-31T05:41:40.086Z,0
2018-12-31T05:42:40.491Z,0
2018-12-31T05:43:41.734Z,0
2018-12-31T05:44:42.693Z,0
2018-12-31T05:45:43.298Z,0
2018-12-31T05:46:44.013Z,0
2018-12-31T05:47:44.417Z,0
2018-12-31T05:48:45.096Z,0
2018-12-31T05:49:45.781Z,0
2018-12-31T05:50:47.588Z,0
2018-12-31T05:51:46.715Z,0
2018-12-31T05:52:48.398Z,0
2018-12-31T05:53:48.526Z,0
2018-12-31T05:54:50.206Z,0
2018-12-31T05:55:51.102Z,0
2018-12-31T05:56:51.507Z,0
2018-12-31T05:57:53.487Z,0
2018-12-31T05:58:53.892Z,0
2018-12-31T05:59:54.577Z,0
2018-12-31T06:00:54.707Z,0
2018-12-31T06:01:55.107Z,0
2018-12-31T06:02:55.791Z,0
2018-12-31T06:03:56.472Z,0
2018-12-31T06:04:57.434Z,0
2018-12-31T06:05:57.276Z,0
2018-12-31T06:06:57.965Z,0
2018-12-31T06:07:58.377Z,0
2018-12-31T06:08:59.056Z,0
2018-12-31T06:09:59.477Z,0
2018-12-31T06:11:03.092Z,0
2018-12-31T06:12:01.774Z,0
2018-12-31T06:13:02.457Z,0
2018-12-31T06:14:03.414Z,0
2018-12-31T06:15:04.175Z,0
2018-12-31T06:16:04.847Z,0
2018-12-31T06:17:07.283Z,0
2018-12-31T06:18:08.690Z,0
2018-12-31T06:19:09.130Z,0
2018-12-31T06:20:10.408Z,0
2018-12-31T06:21:11.089Z,0
2018-12-31T06:22:11.215Z,0
2018-12-31T06:23:13.174Z,0
2018-12-31T06:24:13.859Z,0
2018-12-31T06:25:14.820Z,0
2018-12-31T06:26:15.018Z,0
2018-12-31T06:27:15.504Z,0
2018-12-31T06:28:16.467Z,0
2018-12-31T06:29:16.592Z,0
2018-12-31T06:30:18.105Z,0
2018-12-31T06:31:18.512Z,0
2018-12-31T06:32:19.193Z,0
2018-12-31T06:33:19.597Z,0
2018-12-31T06:34:20.031Z,0
2018-12-31T06:35:20.723Z,0
2018-12-31T06:36:21.441Z,0
2018-12-31T06:37:21.844Z,0
2018-12-31T06:38:23.254Z,0
2018-12-31T06:39:23.660Z,0
2018-12-31T06:40:24.788Z,0
2018-12-31T06:41:26.192Z,0
2018-12-31T06:42:26.598Z,0
2018-12-31T06:43:28.560Z,0
2018-12-31T06:44:28.689Z,0
2018-12-31T06:45:29.649Z,0
2018-12-31T06:46:30.767Z,0
2018-12-31T06:47:31.169Z,0
2018-12-31T06:48:31.646Z,0
2018-12-31T06:49:31.823Z,0
2018-12-31T06:50:32.535Z,0
2018-12-31T06:51:33.218Z,0
2018-12-31T06:52:33.622Z,0
2018-12-31T06:53:34.028Z,0
2018-12-31T06:54:34.718Z,0
2018-12-31T06:55:34.843Z,0
2018-12-31T06:56:35.657Z,0
2018-12-31T06:57:36.618Z,0
2018-12-31T06:58:37.299Z,0
2018-12-31T06:59:37.983Z,0
2018-12-31T07:00:38.416Z,0
2018-12-31T07:01:38.821Z,0
2018-12-31T07:02:39.269Z,0
2018-12-31T07:03:40.396Z,0
2018-12-31T07:04:42.079Z,0
2018-12-31T07:05:43.597Z,0
2018-12-31T07:06:43.864Z,0
2018-12-31T07:07:45.547Z,0
2018-12-31T07:08:46.847Z,0
2018-12-31T07:09:47.259Z,0
2018-12-31T07:10:48.219Z,0
2018-12-31T07:11:49.191Z,0
2018-12-31T07:12:50.154Z,0
2018-12-31T07:13:50.889Z,0
2018-12-31T07:14:51.296Z,0
2018-12-31T07:15:51.981Z,0
2018-12-31T07:16:52.512Z,0
2018-12-31T07:17:55.366Z,0
2018-12-31T07:19:00.335Z,0
2018-12-31T07:19:11.397Z,0
2018-12-31T07:19:22.458Z,0
2018-12-31T07:20:24.861Z,0
2018-12-31T07:20:32.728Z,0
2018-12-31T07:21:32.373Z,0
2018-12-31T07:22:32.776Z,0
2018-12-31T07:23:33.491Z,0
2018-12-31T07:24:34.509Z,0
2018-12-31T07:25:34.735Z,0
2018-12-31T07:26:35.917Z,0
2018-12-31T07:27:36.670Z,0
2018-12-31T07:28:37.694Z,0
2018-12-31T07:29:38.102Z,0
2018-12-31T07:30:38.810Z,0
2018-12-31T07:31:39.762Z,0
2018-12-31T07:32:40.036Z,0
2018-12-31T07:33:39.723Z,5.63
2018-12-31T07:34:40.962Z,5.63
2018-12-31T07:35:41.373Z,5.63
2018-12-31T07:36:43.340Z,5.63
2018-12-31T07:37:43.746Z,5.63
2018-12-31T07:38:44.434Z,5.63
2018-12-31T07:39:44.563Z,5.63
2018-12-31T07:40:46.247Z,5.63
2018-12-31T07:41:47.360Z,5.63
2018-12-31T07:42:48.880Z,5.63
2018-12-31T07:43:48.568Z,5.63
2018-12-31T07:44:49.254Z,5.63
2018-12-31T07:45:49.658Z,5.63
2018-12-31T07:46:50.063Z,5.63
2018-12-31T07:48:04.520Z,5.63
2018-12-31T07:49:02.791Z,5.63
2018-12-31T07:50:04.305Z,5.63
2018-12-31T07:51:04.754Z,5.63
2018-12-31T07:52:05.439Z,5.63
2018-12-31T07:53:05.846Z,5.63
2018-12-31T07:54:06.253Z,5.63
2018-12-31T07:55:06.940Z,5.63
2018-12-31T07:56:07.349Z,5.63
2018-12-31T07:57:08.312Z,5.63
2018-12-31T07:58:08.996Z,5.63
2018-12-31T07:59:09.530Z,5.63
2018-12-31T08:00:10.231Z,5.63
2018-12-31T08:01:10.691Z,5.63
2018-12-31T08:02:10.828Z,5.63
2018-12-31T08:03:11.956Z,5.63
2018-12-31T08:04:13.196Z,5.63
2018-12-31T08:05:13.602Z,5.63
2018-12-31T08:06:14.570Z,5.63
2018-12-31T08:07:15.254Z,11.25
2018-12-31T08:08:15.906Z,11.25
2018-12-31T08:09:16.647Z,11.25
2018-12-31T08:10:17.054Z,11.25
2018-12-31T08:11:18.077Z,11.25
2018-12-31T08:12:18.767Z,11.25
2018-12-31T08:13:19.479Z,11.25
2018-12-31T08:14:20.443Z,11.25
2018-12-31T08:15:21.409Z,11.25
2018-12-31T08:16:22.652Z,11.25
2018-12-31T08:17:22.782Z,11.25
2018-12-31T08:18:24.829Z,11.25
2018-12-31T08:19:23.919Z,11.25
2018-12-31T08:20:24.610Z,11.25
2018-12-31T08:21:25.292Z,11.25
2018-12-31T08:22:26.255Z,11.25
2018-12-31T08:23:27.888Z,11.25
2018-12-31T08:24:39.766Z,11.25
2018-12-31T08:25:43.135Z,11.25
2018-12-31T08:25:54.271Z,11.25
2018-12-31T08:26:52.162Z,11.25
2018-12-31T08:27:51.847Z,11.25
2018-12-31T08:28:52.260Z,11.25
2018-12-31T08:29:52.667Z,11.25
2018-12-31T08:30:53.704Z,11.25
2018-12-31T08:31:54.487Z,11.25
2018-12-31T08:32:55.176Z,11.25
2018-12-31T08:33:55.583Z,11.25
2018-12-31T08:34:55.992Z,11.25
2018-12-31T08:35:56.124Z,11.25
2018-12-31T08:36:57.006Z,11.25
2018-12-31T08:37:57.696Z,11.25
2018-12-31T08:38:58.377Z,11.25
2018-12-31T08:39:58.507Z,11.25
2018-12-31T08:40:59.473Z,11.25
2018-12-31T08:41:59.609Z,16.88
2018-12-31T08:43:00.299Z,16.88
2018-12-31T08:44:01.267Z,16.88
2018-12-31T08:45:01.026Z,16.88
2018-12-31T08:46:01.431Z,16.88
2018-12-31T08:47:01.850Z,16.88
2018-12-31T08:48:08.501Z,16.88
2018-12-31T08:48:17.847Z,16.88
2018-12-31T08:49:26.599Z,16.88
2018-12-31T08:50:28.246Z,16.88
2018-12-31T08:51:29.211Z,16.88
2018-12-31T08:52:30.175Z,22.5
2018-12-31T08:53:30.937Z,22.5
2018-12-31T08:54:31.906Z,22.5
2018-12-31T08:55:32.594Z,22.5
2018-12-31T08:56:33.372Z,22.5
2018-12-31T08:57:33.777Z,22.5
2018-12-31T08:58:34.462Z,22.5
2018-12-31T08:59:35.145Z,22.5
2018-12-31T09:00:36.907Z,22.5
2018-12-31T09:01:55.492Z,22.5
2018-12-31T09:02:05.339Z,22.5
2018-12-31T09:03:04.937Z,22.5
2018-12-31T09:04:06.183Z,22.5
2018-12-31T09:05:06.611Z,22.5
2018-12-31T09:06:07.037Z,22.5
2018-12-31T09:07:07.723Z,22.5
2018-12-31T09:08:08.970Z,22.5
2018-12-31T09:09:09.100Z,22.5
2018-12-31T09:10:09.802Z,22.5
2018-12-31T09:11:10.220Z,22.5
2018-12-31T09:12:12.182Z,22.5
2018-12-31T09:13:13.274Z,28.13
2018-12-31T09:14:14.241Z,28.13
2018-12-31T09:15:16.240Z,28.13
2018-12-31T09:16:15.377Z,28.13
2018-12-31T09:17:16.622Z,28.13
2018-12-31T09:18:17.306Z,28.13
2018-12-31T09:19:19.518Z,28.13
2018-12-31T09:20:18.094Z,33.75
2018-12-31T09:21:18.780Z,33.75
2018-12-31T09:22:18.959Z,33.75
2018-12-31T09:23:19.586Z,33.75
2018-12-31T09:24:20.021Z,28.13
2018-12-31T09:25:20.149Z,28.13
2018-12-31T09:26:21.590Z,28.13
2018-12-31T09:27:22.277Z,28.13
2018-12-31T09:28:23.239Z,28.13
2018-12-31T09:29:28.335Z,28.13
2018-12-31T09:30:25.579Z,28.13
2018-12-31T09:31:26.553Z,33.75
2018-12-31T09:32:26.954Z,33.75
2018-12-31T09:33:27.774Z,33.75
2018-12-31T09:34:28.184Z,33.75
2018-12-31T09:35:29.620Z,33.75
2018-12-31T09:36:30.305Z,33.75
2018-12-31T09:37:30.715Z,39.38
2018-12-31T09:38:31.960Z,39.38
2018-12-31T09:39:31.645Z,33.75
2018-12-31T09:40:32.056Z,33.75
2018-12-31T09:41:33.294Z,33.75
2018-12-31T09:42:33.705Z,33.75
2018-12-31T09:43:35.080Z,33.75
2018-12-31T09:44:35.764Z,28.13
2018-12-31T09:45:36.174Z,33.75
2018-12-31T09:46:36.863Z,33.75
2018-12-31T09:47:37.553Z,33.75
2018-12-31T09:48:37.959Z,33.75
2018-12-31T09:49:38.375Z,33.75
2018-12-31T09:50:39.639Z,33.75
2018-12-31T09:51:40.400Z,33.75
2018-12-31T09:52:40.803Z,33.75
2018-12-31T09:53:43.059Z,33.75
2018-12-31T09:54:44.022Z,33.75
2018-12-31T09:55:43.709Z,28.13
2018-12-31T09:56:44.688Z,22.5
2018-12-31T09:57:44.372Z,22.5
2018-12-31T09:58:45.055Z,28.13
2018-12-31T09:59:45.463Z,28.13
2018-12-31T10:00:45.933Z,28.13
2018-12-31T10:01:46.068Z,28.13
2018-12-31T10:02:47.762Z,28.13
2018-12-31T10:03:49.745Z,28.13
2018-12-31T10:04:50.875Z,28.13
2018-12-31T10:05:52.563Z,28.13
2018-12-31T10:06:53.251Z,28.13
2018-12-31T10:07:53.382Z,28.13
2018-12-31T10:08:53.787Z,28.13
2018-12-31T10:09:55.472Z,28.13
2018-12-31T10:10:56.454Z,33.75
2018-12-31T10:11:57.427Z,33.75
2018-12-31T10:12:57.122Z,33.75
2018-12-31T10:13:57.384Z,33.75
2018-12-31T10:14:59.076Z,33.75
2018-12-31T10:15:59.483Z,33.75
2018-12-31T10:17:00.444Z,33.75
2018-12-31T10:18:00.896Z,33.75
2018-12-31T10:19:01.874Z,33.75
2018-12-31T10:20:02.582Z,33.75
2018-12-31T10:21:02.985Z,33.75
2018-12-31T10:22:03.436Z,33.75
2018-12-31T10:23:03.899Z,33.75
2018-12-31T10:24:03.745Z,28.13
2018-12-31T10:25:05.261Z,33.75
2018-12-31T10:26:05.669Z,33.75
2018-12-31T10:27:05.804Z,33.75
2018-12-31T10:28:08.060Z,33.75
2018-12-31T10:29:07.742Z,33.75
2018-12-31T10:30:09.063Z,33.75
2018-12-31T10:31:08.589Z,33.75
2018-12-31T10:32:09.550Z,33.75
2018-12-31T10:33:10.238Z,33.75
2018-12-31T10:34:10.495Z,33.75
2018-12-31T10:35:12.247Z,33.75
2018-12-31T10:36:12.935Z,33.75
2018-12-31T10:37:13.085Z,33.75
2018-12-31T10:38:14.498Z,39.38
2018-12-31T10:39:15.198Z,45
2018-12-31T10:40:15.608Z,45
2018-12-31T10:41:17.300Z,45
2018-12-31T10:42:16.989Z,45
2018-12-31T10:43:18.120Z,45
2018-12-31T10:44:19.799Z,45
2018-12-31T10:45:20.206Z,45
2018-12-31T10:46:22.729Z,39.38
2018-12-31T10:47:22.134Z,39.38
2018-12-31T10:48:22.819Z,39.38
2018-12-31T10:49:22.954Z,39.38
2018-12-31T10:50:24.644Z,33.75
2018-12-31T10:51:25.332Z,33.75
2018-12-31T10:52:26.019Z,33.75
2018-12-31T10:53:26.735Z,39.38
2018-12-31T10:54:27.133Z,39.38
2018-12-31T10:55:28.099Z,39.38
2018-12-31T10:56:28.554Z,39.38
2018-12-31T10:57:28.963Z,39.38
2018-12-31T10:58:29.650Z,39.38
2018-12-31T10:59:30.617Z,39.38
2018-12-31T11:00:31.580Z,39.38
2018-12-31T11:01:32.266Z,39.38
2018-12-31T11:02:32.679Z,39.38
2018-12-31T11:03:33.647Z,39.38
2018-12-31T11:04:34.469Z,39.38
2018-12-31T11:05:35.435Z,39.38
2018-12-31T11:06:36.123Z,39.38
2018-12-31T11:07:36.811Z,39.38
2018-12-31T11:08:38.774Z,39.38
2018-12-31T11:09:38.982Z,39.38
2018-12-31T11:10:39.947Z,39.38
2018-12-31T11:11:41.189Z,39.38
2018-12-31T11:12:41.323Z,39.38
2018-12-31T11:13:42.285Z,39.38
2018-12-31T11:14:42.661Z,39.38
2018-12-31T11:15:43.075Z,39.38
2018-12-31T11:16:44.842Z,39.38
2018-12-31T11:17:45.251Z,39.38
2018-12-31T11:18:46.772Z,39.38
2018-12-31T11:19:47.463Z,33.75
2018-12-31T11:20:48.155Z,33.75
2018-12-31T11:21:48.288Z,33.75
2018-12-31T11:22:48.975Z,33.75
2018-12-31T11:23:50.223Z,33.75
2018-12-31T11:24:50.338Z,33.75
2018-12-31T11:25:51.020Z,33.75
2018-12-31T11:26:51.428Z,33.75
2018-12-31T11:27:52.390Z,33.75
2018-12-31T11:28:53.075Z,33.75
2018-12-31T11:29:53.760Z,33.75
2018-12-31T11:30:54.446Z,33.75
2018-12-31T11:31:54.579Z,33.75
2018-12-31T11:33:13.960Z,33.75
2018-12-31T11:33:25.542Z,33.75
2018-12-31T11:33:39.021Z,33.75
2018-12-31T11:33:45.809Z,33.75
2018-12-31T11:34:45.138Z,33.75
2018-12-31T11:36:04.508Z,33.75
2018-12-31T11:36:26.414Z,33.75
2018-12-31T11:37:22.452Z,33.75
2018-12-31T11:38:28.242Z,33.75
2018-12-31T11:38:39.400Z,33.75
2018-12-31T11:38:48.924Z,33.75
2018-12-31T11:39:47.798Z,33.75
2018-12-31T11:40:47.929Z,33.75
2018-12-31T11:41:49.341Z,33.75
2018-12-31T11:42:50.599Z,33.75
2018-12-31T11:43:52.068Z,33.75
2018-12-31T11:44:52.786Z,33.75
2018-12-31T11:45:52.988Z,33.75
2018-12-31T11:46:53.675Z,33.75
2018-12-31T11:47:54.834Z,33.75
2018-12-31T11:48:56.519Z,33.75
2018-12-31T11:49:56.616Z,33.75
2018-12-31T11:50:57.303Z,33.75
2018-12-31T11:51:58.081Z,33.75
2018-12-31T11:52:58.495Z,33.75
2018-12-31T11:53:58.626Z,33.75
2018-12-31T11:54:59.758Z,33.75
2018-12-31T11:56:00.451Z,39.38
2018-12-31T11:57:04.911Z,39.38
2018-12-31T11:58:02.597Z,33.75
2018-12-31T11:59:03.561Z,33.75
2018-12-31T12:00:03.718Z,33.75
2018-12-31T12:01:04.240Z,33.75
2018-12-31T12:02:05.205Z,39.38
2018-12-31T12:03:05.337Z,39.38
2018-12-31T12:04:07.304Z,39.38
2018-12-31T12:05:07.547Z,39.38
2018-12-31T12:06:07.962Z,39.38
2018-12-31T12:07:08.449Z,45
2018-12-31T12:08:08.859Z,45
2018-12-31T12:09:09.272Z,45
2018-12-31T12:10:10.119Z,45
2018-12-31T12:11:10.808Z,45
2018-12-31T12:12:12.480Z,45
2018-12-31T12:13:11.913Z,39.38
2018-12-31T12:14:13.466Z,39.38
2018-12-31T12:15:13.499Z,39.38
2018-12-31T12:16:14.480Z,39.38
2018-12-31T12:17:15.256Z,39.38
2018-12-31T12:18:15.749Z,39.38
2018-12-31T12:19:15.880Z,39.38
2018-12-31T12:20:16.246Z,39.38
2018-12-31T12:21:16.377Z,39.38
2018-12-31T12:22:20.453Z,39.38
2018-12-31T12:23:18.999Z,39.38
2018-12-31T12:24:19.703Z,39.38
2018-12-31T12:25:20.401Z,39.38
2018-12-31T12:26:21.162Z,39.38
2018-12-31T12:27:21.855Z,39.38
2018-12-31T12:28:22.008Z,39.38
2018-12-31T12:29:24.052Z,39.38
2018-12-31T12:30:23.998Z,39.38
2018-12-31T12:31:24.983Z,39.38
2018-12-31T12:32:26.656Z,39.38
2018-12-31T12:33:25.949Z,39.38
2018-12-31T12:34:27.195Z,39.38
2018-12-31T12:35:27.339Z,33.75
2018-12-31T12:36:28.388Z,33.75
2018-12-31T12:37:28.894Z,33.75
2018-12-31T12:38:29.593Z,33.75
2018-12-31T12:39:30.687Z,39.38
2018-12-31T12:40:30.708Z,39.38
2018-12-31T12:41:33.057Z,39.38
2018-12-31T12:42:33.862Z,39.38
2018-12-31T12:43:34.326Z,39.38
2018-12-31T12:44:34.467Z,39.38
2018-12-31T12:45:35.880Z,39.38
2018-12-31T12:46:36.573Z,39.38
2018-12-31T12:47:36.990Z,39.38
2018-12-31T12:48:37.691Z,33.75
2018-12-31T12:49:38.399Z,33.75
2018-12-31T12:50:38.796Z,33.75
2018-12-31T12:51:41.462Z,33.75
2018-12-31T12:52:40.161Z,33.75
2018-12-31T12:53:41.575Z,33.75
2018-12-31T12:54:45.819Z,33.75
2018-12-31T12:55:44.185Z,33.75
2018-12-31T12:56:43.895Z,28.13
2018-12-31T12:57:44.696Z,28.13
2018-12-31T12:58:45.547Z,33.75
2018-12-31T12:59:46.246Z,33.75
2018-12-31T13:00:46.819Z,33.75
2018-12-31T13:01:49.464Z,33.75
2018-12-31T13:02:51.103Z,33.75
2018-12-31T13:03:49.398Z,33.75
2018-12-31T13:04:50.382Z,33.75
2018-12-31T13:05:51.948Z,33.75
2018-12-31T13:06:52.208Z,33.75
2018-12-31T13:07:52.655Z,33.75
2018-12-31T13:08:53.075Z,33.75
2018-12-31T13:09:54.611Z,33.75
2018-12-31T13:10:54.537Z,33.75
2018-12-31T13:11:58.333Z,28.13
2018-12-31T13:12:58.030Z,28.13
2018-12-31T13:13:59.284Z,28.13
2018-12-31T13:14:58.991Z,33.75
2018-12-31T13:15:59.766Z,39.38
2018-12-31T13:17:00.747Z,39.38
2018-12-31T13:18:01.170Z,39.38
2018-12-31T13:19:02.198Z,39.38
2018-12-31T13:20:03.241Z,39.38
2018-12-31T13:21:03.792Z,39.38
2018-12-31T13:22:08.672Z,39.38
2018-12-31T13:23:06.642Z,39.38
2018-12-31T13:24:07.068Z,33.75
2018-12-31T13:25:07.217Z,33.75
2018-12-31T13:26:07.931Z,39.38
2018-12-31T13:27:08.345Z,39.38
2018-12-31T13:28:08.763Z,45
2018-12-31T13:29:09.191Z,45
2018-12-31T13:30:12.915Z,45
2018-12-31T13:31:13.488Z,45
2018-12-31T13:32:16.409Z,39.38
2018-12-31T13:33:16.178Z,39.38
2018-12-31T13:34:15.592Z,39.38
2018-12-31T13:35:17.146Z,39.38
2018-12-31T13:36:16.296Z,45
2018-12-31T13:37:17.712Z,45
2018-12-31T13:38:18.694Z,45
2018-12-31T13:39:19.118Z,45
2018-12-31T13:40:19.815Z,45
2018-12-31T13:41:20.740Z,39.38
2018-12-31T13:42:25.045Z,39.38
2018-12-31T13:43:23.704Z,33.75
2018-12-31T13:44:24.965Z,33.75
2018-12-31T13:45:24.393Z,28.13
2018-12-31T13:46:24.818Z,28.13
2018-12-31T13:47:25.858Z,28.13
2018-12-31T13:48:28.497Z,28.13
2018-12-31T13:49:29.205Z,28.13
2018-12-31T13:50:33.705Z,28.13
2018-12-31T13:51:49.626Z,28.13
2018-12-31T13:51:57.666Z,28.13
2018-12-31T13:52:56.670Z,28.13
2018-12-31T13:53:57.363Z,28.13
2018-12-31T13:54:57.587Z,28.13
2018-12-31T13:55:59.521Z,28.13